Time;durP1;ratioP1;P1;durP2;ratioP2;P2;SDS_P1;SDS_P2;PMS_P1;PMS_P2;Temp;Humidity;BMP_temperature;BMP_pressure;BME280_temperature;BME280_humidity;BME280_pressure;Samples;Min_cycle;Max_cycle;Signal;HPM_P1;HPM_P2
2022/11/14 00:00:05;;;;;;;15.75;12.27;;;;;;;;;;1051430;28;20024;-77
2022/11/14 00:00:37;;;;;;;14.65;11.25;;;;;;;;;;1047242;28;20119;-78
2022/11/14 00:01:09;;;;;;;11.85;9.40;;;;;;;;;;1043153;28;20021;-77
2022/11/14 00:01:40;;;;;;;15.25;11.38;;;;;;;;;;1043973;28;20095;-77
2022/11/14 00:02:11;;;;;;;13.82;11.77;;;;;;;;;;1047005;28;20025;-77
2022/11/14 00:02:41;;;;;;;15.43;11.50;;;;;;;;;;1043800;28;20756;-77
2022/11/14 00:03:13;;;;;;;15.00;12.40;;;;;;;;;;1043090;28;20025;-77
2022/11/14 00:03:44;;;;;;;10.35;8.77;;;;;;;;;;1044370;28;20017;-78
2022/11/14 00:04:14;;;;;;;13.27;11.27;;;;;;;;;;1043768;28;20169;-77
2022/11/14 00:04:46;;;;;;;15.85;12.40;;;;;;;;;;1047425;28;20039;-78
2022/11/14 00:05:17;;;;;;;13.32;9.55;;;;;;;;;;1047834;28;20044;-77
2022/11/14 00:05:48;;;;;;;13.38;9.57;;;;;;;;;;1051667;28;20098;-77
2022/11/14 00:06:19;;;;;;;13.98;11.48;;;;;;;;;;1047224;28;20028;-77
2022/11/14 00:06:50;;;;;;;14.68;10.60;;;;;;;;;;1047461;28;20531;-77
2022/11/14 00:07:21;;;;;;;13.90;11.30;;;;;;;;;;1047779;28;20534;-77
2022/11/14 00:07:52;;;;;;;15.57;11.40;;;;;;;;;;1047384;28;20449;-76
2022/11/14 00:08:24;;;;;;;12.07;9.25;;;;;;;;;;1051757;28;20524;-78
2022/11/14 00:08:55;;;;;;;13.23;11.02;;;;;;;;;;1047747;28;20036;-77
2022/11/14 00:09:26;;;;;;;15.80;12.43;;;;;;;;;;1047821;28;20122;-79
2022/11/14 00:09:57;;;;;;;14.55;10.80;;;;;;;;;;1051504;28;20024;-77
2022/11/14 00:10:28;;;;;;;12.63;9.93;;;;;;;;;;1052229;28;20020;-77
2022/11/14 00:10:59;;;;;;;14.40;12.52;;;;;;;;;;1052554;28;20095;-77
2022/11/14 00:11:30;;;;;;;13.75;11.88;;;;;;;;;;1051939;28;20028;-77
2022/11/14 00:12:01;;;;;;;14.40;10.95;;;;;;;;;;1047073;28;20032;-77
2022/11/14 00:12:33;;;;;;;15.77;11.88;;;;;;;;;;1046343;28;20400;-77
2022/11/14 00:13:03;;;;;;;13.15;9.88;;;;;;;;;;1047836;28;20095;-77
2022/11/14 00:13:35;;;;;;;15.40;12.38;;;;;;;;;;1047151;28;20032;-77
2022/11/14 00:14:06;;;;;;;15.45;12.75;;;;;;;;;;1048285;28;20025;-77
2022/11/14 00:14:37;;;;;;;12.90;10.73;;;;;;;;;;1045330;28;20029;-77
2022/11/14 00:15:08;;;;;;;16.95;11.73;;;;;;;;;;1043116;28;20025;-77
2022/11/14 00:15:39;;;;;;;11.30;9.18;;;;;;;;;;1045146;28;20613;-77
2022/11/14 00:16:10;;;;;;;14.82;12.30;;;;;;;;;;1043394;28;20025;-76
2022/11/14 00:16:41;;;;;;;14.00;11.15;;;;;;;;;;1043049;28;20029;-78
2022/11/14 00:17:12;;;;;;;15.00;11.18;;;;;;;;;;1043556;28;20843;-77
2022/11/14 00:17:43;;;;;;;16.13;12.18;;;;;;;;;;1045804;28;20032;-77
2022/11/14 00:18:14;;;;;;;14.10;11.38;;;;;;;;;;1052193;28;20549;-77
2022/11/14 00:18:45;;;;;;;14.43;11.43;;;;;;;;;;1055885;28;20289;-76
2022/11/14 00:19:15;;;;;;;12.02;9.15;;;;;;;;;;1055472;28;20099;-77
2022/11/14 00:19:46;;;;;;;15.18;9.60;;;;;;;;;;1055397;28;20552;-78
2022/11/14 00:20:17;;;;;;;18.73;12.43;;;;;;;;;;1047418;28;20032;-76
2022/11/14 00:20:49;;;;;;;16.50;11.73;;;;;;;;;;1047169;28;20033;-77
2022/11/14 00:21:20;;;;;;;15.68;12.40;;;;;;;;;;1043166;28;20051;-76
2022/11/14 00:21:52;;;;;;;17.33;13.30;;;;;;;;;;1042400;28;20060;-77
2022/11/14 00:22:23;;;;;;;14.90;10.77;;;;;;;;;;1048487;28;20765;-77
2022/11/14 00:22:54;;;;;;;14.98;12.13;;;;;;;;;;1051056;28;20636;-77
2022/11/14 00:23:25;;;;;;;15.77;13.20;;;;;;;;;;1047479;28;20032;-78
2022/11/14 00:23:56;;;;;;;13.73;10.38;;;;;;;;;;1042796;28;20033;-77
2022/11/14 00:24:26;;;;;;;16.92;12.70;;;;;;;;;;1043300;28;20021;-76
2022/11/14 00:24:57;;;;;;;16.85;13.75;;;;;;;;;;1047163;28;20111;-77
2022/11/14 00:25:29;;;;;;;15.65;12.02;;;;;;;;;;1047330;28;20050;-77
2022/11/14 00:26:00;;;;;;;16.58;12.82;;;;;;;;;;1042409;28;20027;-78
2022/11/14 00:26:31;;;;;;;19.33;13.48;;;;;;;;;;1044171;28;20131;-77
2022/11/14 00:27:02;;;;;;;16.48;12.90;;;;;;;;;;1047280;28;20028;-77
2022/11/14 00:27:33;;;;;;;15.73;12.98;;;;;;;;;;1048251;28;20400;-77
2022/11/14 00:28:04;;;;;;;17.25;12.90;;;;;;;;;;1047537;28;20020;-77
2022/11/14 00:28:35;;;;;;;17.50;14.52;;;;;;;;;;1047260;28;20640;-77
2022/11/14 00:29:06;;;;;;;14.10;11.43;;;;;;;;;;1046983;28;20020;-77
2022/11/14 00:29:37;;;;;;;18.90;14.50;;;;;;;;;;1050640;28;20016;-78
2022/11/14 00:30:09;;;;;;;16.85;13.27;;;;;;;;;;1051589;28;20020;-77
2022/11/14 00:30:39;;;;;;;14.80;11.77;;;;;;;;;;1046984;28;20029;-77
2022/11/14 00:31:10;;;;;;;17.63;13.48;;;;;;;;;;1047526;28;20059;-76
2022/11/14 00:31:42;;;;;;;15.98;14.10;;;;;;;;;;1051448;28;20024;-76
2022/11/14 00:32:12;;;;;;;15.38;12.73;;;;;;;;;;1051470;28;20039;-76
2022/11/14 00:32:43;;;;;;;15.18;11.25;;;;;;;;;;1051333;28;20019;-76
2022/11/14 00:33:14;;;;;;;15.98;13.55;;;;;;;;;;1047248;28;20531;-76
2022/11/14 00:33:45;;;;;;;15.63;11.82;;;;;;;;;;1047296;28;20031;-76
2022/11/14 00:34:16;;;;;;;15.23;12.15;;;;;;;;;;1047230;28;20043;-76
2022/11/14 00:34:48;;;;;;;16.15;13.18;;;;;;;;;;1051604;28;20019;-77
2022/11/14 00:35:19;;;;;;;13.85;10.65;;;;;;;;;;1047108;28;20020;-77
2022/11/14 00:35:51;;;;;;;15.50;12.32;;;;;;;;;;1050640;28;20074;-76
2022/11/14 00:36:22;;;;;;;17.77;12.73;;;;;;;;;;1051808;28;20039;-76
2022/11/14 00:36:53;;;;;;;19.38;12.38;;;;;;;;;;1046975;28;20246;-77
2022/11/14 00:37:24;;;;;;;16.05;13.38;;;;;;;;;;1051629;28;20020;-76
2022/11/14 00:37:55;;;;;;;18.67;12.82;;;;;;;;;;1051195;28;20012;-76
2022/11/14 00:38:26;;;;;;;18.08;14.15;;;;;;;;;;1047221;28;20027;-76
2022/11/14 00:38:57;;;;;;;14.50;12.32;;;;;;;;;;1047083;28;20016;-76
2022/11/14 00:39:28;;;;;;;18.35;14.27;;;;;;;;;;1047771;28;20024;-77
2022/11/14 00:39:59;;;;;;;15.93;12.10;;;;;;;;;;1051253;28;20503;-78
2022/11/14 00:40:30;;;;;;;17.27;13.73;;;;;;;;;;1048392;28;20012;-76
2022/11/14 00:41:01;;;;;;;16.95;12.30;;;;;;;;;;1051646;28;20502;-77
2022/11/14 00:41:32;;;;;;;16.92;13.20;;;;;;;;;;1055820;28;20050;-76
2022/11/14 00:42:03;;;;;;;16.45;13.73;;;;;;;;;;1055215;28;20026;-77
2022/11/14 00:42:34;;;;;;;15.68;11.73;;;;;;;;;;1051508;28;20019;-77
2022/11/14 00:43:05;;;;;;;16.83;13.50;;;;;;;;;;1051060;28;20460;-77
2022/11/14 00:43:36;;;;;;;16.70;13.45;;;;;;;;;;1045609;28;20410;-77
2022/11/14 00:44:07;;;;;;;16.70;14.63;;;;;;;;;;1039223;28;20115;-77
2022/11/14 00:44:38;;;;;;;15.55;12.27;;;;;;;;;;1039123;28;20155;-76
2022/11/14 00:45:09;;;;;;;17.52;13.85;;;;;;;;;;1038971;28;20396;-76
2022/11/14 00:45:42;;;;;;;17.83;13.85;;;;;;;;;;1043369;28;20021;-76
2022/11/14 00:46:13;;;;;;;17.75;12.10;;;;;;;;;;1042918;28;20024;-78
2022/11/14 00:46:44;;;;;;;18.65;15.38;;;;;;;;;;1045939;28;20412;-77
2022/11/14 00:47:15;;;;;;;17.27;13.52;;;;;;;;;;1043214;28;20391;-76
2022/11/14 00:47:46;;;;;;;23.25;15.88;;;;;;;;;;1042887;28;20111;-76
2022/11/14 00:48:17;;;;;;;14.98;11.95;;;;;;;;;;1044314;28;20459;-76
2022/11/14 00:48:48;;;;;;;17.95;12.88;;;;;;;;;;1043480;28;20029;-76
2022/11/14 00:49:19;;;;;;;18.10;14.25;;;;;;;;;;1043378;28;20028;-76
2022/11/14 00:49:50;;;;;;;19.77;14.02;;;;;;;;;;1046447;28;20016;-76
2022/11/14 00:50:21;;;;;;;18.58;12.82;;;;;;;;;;1045166;28;20048;-76
2022/11/14 00:50:52;;;;;;;18.48;14.80;;;;;;;;;;1051274;28;20420;-76
2022/11/14 00:51:23;;;;;;;14.95;11.50;;;;;;;;;;1051398;28;20027;-77
2022/11/14 00:51:54;;;;;;;17.17;13.65;;;;;;;;;;1050933;28;20055;-77
2022/11/14 00:52:25;;;;;;;20.20;13.35;;;;;;;;;;1043448;28;20077;-76
2022/11/14 00:52:56;;;;;;;18.73;14.63;;;;;;;;;;1042739;28;20120;-78
2022/11/14 00:53:27;;;;;;;18.00;14.95;;;;;;;;;;1042941;28;20084;-75
2022/11/14 00:53:57;;;;;;;16.65;13.13;;;;;;;;;;1040012;28;20022;-76
2022/11/14 00:54:28;;;;;;;16.80;12.93;;;;;;;;;;1043518;28;20029;-77
2022/11/14 00:54:59;;;;;;;18.48;14.95;;;;;;;;;;1047099;28;20020;-78
2022/11/14 00:55:30;;;;;;;16.88;12.20;;;;;;;;;;1046873;28;20046;-77
2022/11/14 00:56:01;;;;;;;15.70;12.75;;;;;;;;;;1047075;28;20172;-77
2022/11/14 00:56:32;;;;;;;16.77;12.73;;;;;;;;;;1042928;28;20060;-77
2022/11/14 00:57:03;;;;;;;17.45;13.90;;;;;;;;;;1044790;28;20087;-77
2022/11/14 00:57:34;;;;;;;15.93;12.77;;;;;;;;;;1047449;28;20480;-77
2022/11/14 00:58:05;;;;;;;19.38;14.80;;;;;;;;;;1046881;28;20479;-78
2022/11/14 00:58:36;;;;;;;15.88;13.07;;;;;;;;;;1048130;28;20024;-77
2022/11/14 00:59:07;;;;;;;18.13;14.30;;;;;;;;;;1047634;28;20025;-77
2022/11/14 00:59:38;;;;;;;20.65;16.20;;;;;;;;;;1050923;28;20026;-76
2022/11/14 01:00:10;;;;;;;15.90;13.30;;;;;;;;;;1051324;28;20028;-76
2022/11/14 01:00:41;;;;;;;20.38;14.73;;;;;;;;;;1051462;28;20110;-77
2022/11/14 01:01:12;;;;;;;16.65;12.88;;;;;;;;;;1047010;28;20016;-76
2022/11/14 01:01:43;;;;;;;16.40;12.90;;;;;;;;;;1047033;28;20016;-76
2022/11/14 01:02:13;;;;;;;16.25;13.85;;;;;;;;;;1049264;28;20052;-76
2022/11/14 01:02:44;;;;;;;17.33;12.38;;;;;;;;;;1047281;28;20032;-77
2022/11/14 01:03:15;;;;;;;20.33;14.35;;;;;;;;;;1051187;28;20107;-77
2022/11/14 01:03:48;;;;;;;16.20;12.13;;;;;;;;;;1052557;28;20034;-76
2022/11/14 01:04:19;;;;;;;20.23;14.65;;;;;;;;;;1046593;28;20098;-77
2022/11/14 01:04:50;;;;;;;16.38;12.63;;;;;;;;;;1046498;28;20102;-77
2022/11/14 01:05:21;;;;;;;18.10;15.38;;;;;;;;;;1047123;28;20032;-77
2022/11/14 01:05:52;;;;;;;17.83;12.55;;;;;;;;;;1047591;28;20024;-77
2022/11/14 01:06:23;;;;;;;15.57;12.05;;;;;;;;;;1051117;28;20330;-77
2022/11/14 01:06:54;;;;;;;16.77;13.45;;;;;;;;;;1051217;28;20024;-78
2022/11/14 01:07:24;;;;;;;16.60;13.02;;;;;;;;;;1045425;28;20017;-77
2022/11/14 01:07:55;;;;;;;17.42;13.38;;;;;;;;;;1042901;28;20032;-77
2022/11/14 01:08:26;;;;;;;17.20;13.77;;;;;;;;;;1047288;28;20073;-77
2022/11/14 01:08:57;;;;;;;16.55;13.40;;;;;;;;;;1045540;28;20481;-77
2022/11/14 01:09:28;;;;;;;15.40;11.50;;;;;;;;;;1042838;28;20123;-77
2022/11/14 01:09:59;;;;;;;19.25;14.25;;;;;;;;;;1042965;28;20032;-77
2022/11/14 01:10:30;;;;;;;16.98;12.65;;;;;;;;;;1045213;28;20071;-77
2022/11/14 01:11:08;;;;;;;19.05;14.85;;;;;;;;;;1047732;28;20403;-77
2022/11/14 01:11:39;;;;;;;16.80;13.65;;;;;;;;;;1047307;28;20016;-76
2022/11/14 01:12:10;;;;;;;17.17;13.98;;;;;;;;;;1044477;28;20021;-77
2022/11/14 01:12:41;;;;;;;17.42;13.55;;;;;;;;;;1044202;28;20070;-77
2022/11/14 01:13:13;;;;;;;16.55;12.07;;;;;;;;;;1047146;28;20020;-76
2022/11/14 01:13:44;;;;;;;16.65;13.65;;;;;;;;;;1046631;28;20034;-77
2022/11/14 01:14:15;;;;;;;17.67;13.95;;;;;;;;;;1047480;28;20025;-76
2022/11/14 01:14:46;;;;;;;18.23;12.63;;;;;;;;;;1051362;28;20101;-76
2022/11/14 01:15:17;;;;;;;16.80;12.93;;;;;;;;;;1051589;28;20028;-77
2022/11/14 01:15:49;;;;;;;18.95;13.13;;;;;;;;;;1049279;28;20038;-77
2022/11/14 01:16:20;;;;;;;19.30;14.13;;;;;;;;;;1038974;28;20053;-76
2022/11/14 01:16:50;;;;;;;18.55;13.52;;;;;;;;;;1038921;28;20032;-76
2022/11/14 01:17:21;;;;;;;17.35;12.90;;;;;;;;;;1044809;28;20017;-76
2022/11/14 01:17:52;;;;;;;16.42;14.27;;;;;;;;;;1043245;28;20029;-75
2022/11/14 01:18:23;;;;;;;14.65;11.90;;;;;;;;;;1047601;28;20121;-75
2022/11/14 01:18:54;;;;;;;17.52;14.15;;;;;;;;;;1050926;28;20082;-76
2022/11/14 01:19:25;;;;;;;15.98;13.30;;;;;;;;;;1051431;28;20048;-76
2022/11/14 01:19:56;;;;;;;17.40;13.63;;;;;;;;;;1047223;28;20020;-77
2022/11/14 01:20:27;;;;;;;16.50;12.52;;;;;;;;;;1048394;28;20059;-77
2022/11/14 01:20:58;;;;;;;16.25;12.77;;;;;;;;;;1051027;28;20056;-77
2022/11/14 01:21:29;;;;;;;16.65;12.50;;;;;;;;;;1051689;28;20032;-77
2022/11/14 01:22:00;;;;;;;17.58;13.68;;;;;;;;;;1050915;28;20110;-77
2022/11/14 01:22:31;;;;;;;20.10;13.43;;;;;;;;;;1048367;28;20028;-77
2022/11/14 01:23:02;;;;;;;17.05;13.48;;;;;;;;;;1046716;28;20391;-77
2022/11/14 01:23:36;;;;;;;18.30;13.55;;;;;;;;;;1047057;28;20475;-77
2022/11/14 01:24:07;;;;;;;18.58;14.05;;;;;;;;;;1045284;28;20067;-76
2022/11/14 01:24:38;;;;;;;18.48;13.60;;;;;;;;;;1047114;28;20032;-76
2022/11/14 01:25:09;;;;;;;20.40;13.93;;;;;;;;;;1046660;28;20025;-77
2022/11/14 01:25:41;;;;;;;18.30;13.40;;;;;;;;;;1047111;28;20035;-77
2022/11/14 01:26:13;;;;;;;18.30;14.00;;;;;;;;;;1049358;28;20033;-77
2022/11/14 01:26:44;;;;;;;17.83;13.93;;;;;;;;;;1051425;28;20031;-77
2022/11/14 01:27:15;;;;;;;17.33;14.05;;;;;;;;;;1051298;28;20028;-76
2022/11/14 01:27:46;;;;;;;17.83;13.00;;;;;;;;;;1049916;28;20534;-77
2022/11/14 01:28:18;;;;;;;18.42;13.05;;;;;;;;;;1046949;28;20028;-76
2022/11/14 01:28:49;;;;;;;18.90;15.13;;;;;;;;;;1047250;28;20029;-77
2022/11/14 01:29:20;;;;;;;21.15;14.93;;;;;;;;;;1051155;28;20023;-77
2022/11/14 01:29:51;;;;;;;17.20;12.98;;;;;;;;;;1055632;28;20035;-78
2022/11/14 01:30:22;;;;;;;16.10;12.68;;;;;;;;;;1051200;28;20368;-77
2022/11/14 01:30:53;;;;;;;19.17;13.98;;;;;;;;;;1051125;28;20032;-77
2022/11/14 01:31:25;;;;;;;20.10;13.27;;;;;;;;;;1045014;28;20013;-77
2022/11/14 01:31:56;;;;;;;15.88;12.40;;;;;;;;;;1047492;28;20126;-77
2022/11/14 01:32:27;;;;;;;18.98;13.40;;;;;;;;;;1047021;28;20605;-77
2022/11/14 01:32:58;;;;;;;18.95;14.93;;;;;;;;;;1041235;28;20454;-76
2022/11/14 01:33:29;;;;;;;19.02;15.23;;;;;;;;;;1040233;28;20389;-77
2022/11/14 01:34:00;;;;;;;19.50;14.27;;;;;;;;;;1042713;28;20025;-77
2022/11/14 01:34:31;;;;;;;18.65;13.85;;;;;;;;;;1047330;28;20023;-77
2022/11/14 01:35:01;;;;;;;16.30;14.00;;;;;;;;;;1051075;28;20085;-76
2022/11/14 01:35:33;;;;;;;17.13;13.38;;;;;;;;;;1051875;28;20027;-76
2022/11/14 01:36:05;;;;;;;18.20;14.07;;;;;;;;;;1055627;28;20023;-77
2022/11/14 01:36:36;;;;;;;19.50;13.90;;;;;;;;;;1050279;28;20119;-77
2022/11/14 01:37:08;;;;;;;23.00;16.83;;;;;;;;;;1047172;28;20023;-76
2022/11/14 01:37:39;;;;;;;17.80;12.38;;;;;;;;;;1046894;28;20009;-76
2022/11/14 01:38:12;;;;;;;17.30;14.27;;;;;;;;;;1047504;28;20021;-75
2022/11/14 01:38:43;;;;;;;17.58;14.30;;;;;;;;;;1051984;28;20019;-77
2022/11/14 01:39:14;;;;;;;19.35;12.50;;;;;;;;;;1047018;28;20035;-77
2022/11/14 01:39:46;;;;;;;18.25;14.05;;;;;;;;;;1046921;28;20088;-76
2022/11/14 01:40:17;;;;;;;22.10;16.92;;;;;;;;;;1043491;28;20095;-76
2022/11/14 01:40:47;;;;;;;19.00;13.75;;;;;;;;;;1043216;28;20393;-76
2022/11/14 01:41:19;;;;;;;19.05;14.10;;;;;;;;;;1047062;28;20483;-77
2022/11/14 01:41:50;;;;;;;19.67;15.00;;;;;;;;;;1047828;28;20044;-77
2022/11/14 01:42:21;;;;;;;21.27;16.00;;;;;;;;;;1051720;28;20012;-78
2022/11/14 01:43:10;;;;;;;22.52;16.02;;;;;;;;;;1051434;28;20686;-76
2022/11/14 01:43:42;;;;;;;20.73;15.35;;;;;;;;;;1052576;28;20076;-77
2022/11/14 01:44:15;;;;;;;20.73;15.15;;;;;;;;;;1042840;28;20104;-77
2022/11/14 01:44:51;;;;;;;18.48;13.48;;;;;;;;;;1045400;28;20025;-78
2022/11/14 01:45:40;;;;;;;16.77;12.57;;;;;;;;;;1042633;28;20747;-77
2022/11/14 01:46:27;;;;;;;21.52;15.18;;;;;;;;;;1050688;28;20028;-77
2022/11/14 01:46:58;;;;;;;19.08;14.25;;;;;;;;;;1051248;28;20019;-77
2022/11/14 01:47:31;;;;;;;17.92;14.63;;;;;;;;;;1055732;28;20030;-76
2022/11/14 01:48:02;;;;;;;19.67;15.20;;;;;;;;;;1055399;28;20390;-76
2022/11/14 01:48:39;;;;;;;19.42;14.32;;;;;;;;;;1050613;28;20097;-76
2022/11/14 01:49:14;;;;;;;19.58;15.02;;;;;;;;;;1046864;28;20012;-77
2022/11/14 01:49:47;;;;;;;23.38;14.60;;;;;;;;;;1047388;28;20032;-76
2022/11/14 01:50:18;;;;;;;20.13;15.50;;;;;;;;;;1050829;28;20027;-77
2022/11/14 01:50:52;;;;;;;19.65;14.52;;;;;;;;;;1047004;28;20454;-76
2022/11/14 01:51:29;;;;;;;20.83;15.55;;;;;;;;;;1047253;28;20229;-76
2022/11/14 01:52:05;;;;;;;25.42;17.45;;;;;;;;;;1044440;28;20537;-77
2022/11/14 01:52:38;;;;;;;23.42;16.60;;;;;;;;;;1044980;28;20017;-75
2022/11/14 01:53:09;;;;;;;19.55;16.35;;;;;;;;;;1042517;28;20456;-76
2022/11/14 01:53:41;;;;;;;21.50;15.98;;;;;;;;;;1046226;28;20499;-76
2022/11/14 01:54:30;;;;;;;19.30;14.05;;;;;;;;;;1042823;28;20056;-76
2022/11/14 01:55:04;;;;;;;22.15;16.27;;;;;;;;;;1045736;28;20024;-76
2022/11/14 01:55:38;;;;;;;21.77;16.35;;;;;;;;;;1049137;28;20024;-78
2022/11/14 01:56:09;;;;;;;21.48;15.75;;;;;;;;;;1054932;28;20107;-77
2022/11/14 01:56:44;;;;;;;20.17;15.80;;;;;;;;;;1055794;28;20023;-77
2022/11/14 01:57:17;;;;;;;22.38;15.70;;;;;;;;;;1048730;28;20037;-78
2022/11/14 01:57:49;;;;;;;18.60;14.75;;;;;;;;;;1046662;28;20032;-77
2022/11/14 01:58:20;;;;;;;19.83;15.35;;;;;;;;;;1046955;28;20510;-76
2022/11/14 01:58:58;;;;;;;19.77;15.50;;;;;;;;;;1042378;28;20112;-77
2022/11/14 01:59:32;;;;;;;23.58;16.70;;;;;;;;;;1047839;28;20116;-76
2022/11/14 02:00:06;;;;;;;18.50;15.05;;;;;;;;;;1046636;28;20023;-77
2022/11/14 02:00:37;;;;;;;19.98;15.55;;;;;;;;;;1048515;28;20135;-78
2022/11/14 02:01:08;;;;;;;21.13;16.55;;;;;;;;;;1050185;28;20111;-78
2022/11/14 02:01:45;;;;;;;23.00;16.60;;;;;;;;;;1043007;28;20033;-78
2022/11/14 02:02:17;;;;;;;20.17;15.63;;;;;;;;;;1046354;28;20587;-78
2022/11/14 02:02:48;;;;;;;23.27;17.17;;;;;;;;;;1046866;28;20064;-77
2022/11/14 02:03:20;;;;;;;21.80;16.27;;;;;;;;;;1048483;28;20132;-76
2022/11/14 02:03:52;;;;;;;21.90;16.55;;;;;;;;;;1053735;28;20275;-76
2022/11/14 02:04:28;;;;;;;20.42;16.98;;;;;;;;;;1047432;28;20203;-76
2022/11/14 02:05:12;;;;;;;19.73;15.30;;;;;;;;;;1046900;28;20038;-77
2022/11/14 02:05:45;;;;;;;21.80;16.45;;;;;;;;;;1048827;28;20055;-77
2022/11/14 02:06:18;;;;;;;21.73;17.70;;;;;;;;;;1051061;28;20130;-76
2022/11/14 02:06:50;;;;;;;25.40;16.90;;;;;;;;;;1051447;28;20024;-77
2022/11/14 02:07:22;;;;;;;21.60;15.75;;;;;;;;;;1043790;28;20579;-76
2022/11/14 02:07:53;;;;;;;21.77;16.10;;;;;;;;;;1046931;28;20035;-77
2022/11/14 02:08:24;;;;;;;20.52;14.93;;;;;;;;;;1047382;28;20044;-77
2022/11/14 02:08:56;;;;;;;23.38;17.08;;;;;;;;;;1046970;28;20055;-76
2022/11/14 02:09:30;;;;;;;22.30;16.38;;;;;;;;;;1043620;28;20325;-76
2022/11/14 02:10:03;;;;;;;22.38;16.75;;;;;;;;;;1046720;28;20035;-76
2022/11/14 02:10:34;;;;;;;20.73;15.60;;;;;;;;;;1050611;28;20444;-76
2022/11/14 02:11:05;;;;;;;21.70;16.30;;;;;;;;;;1046660;28;20471;-77
2022/11/14 02:11:41;;;;;;;23.10;18.20;;;;;;;;;;1047040;28;20090;-77
2022/11/14 02:12:16;;;;;;;21.83;15.88;;;;;;;;;;1047886;28;20108;-77
2022/11/14 02:12:48;;;;;;;22.70;17.17;;;;;;;;;;1047286;28;20086;-76
2022/11/14 02:13:19;;;;;;;19.52;14.52;;;;;;;;;;1047280;28;20678;-77
2022/11/14 02:13:50;;;;;;;22.70;16.00;;;;;;;;;;1053633;28;20715;-77
2022/11/14 02:14:22;;;;;;;23.67;17.55;;;;;;;;;;1054506;28;20475;-76
2022/11/14 02:14:55;;;;;;;21.73;16.05;;;;;;;;;;1055596;28;20094;-77
2022/11/14 02:15:26;;;;;;;24.20;17.52;;;;;;;;;;1053661;28;20015;-78
2022/11/14 02:15:57;;;;;;;22.48;17.48;;;;;;;;;;1051327;28;20008;-76
2022/11/14 02:16:28;;;;;;;22.52;16.48;;;;;;;;;;1051701;28;20027;-76
2022/11/14 02:16:59;;;;;;;24.00;19.95;;;;;;;;;;1052731;28;20121;-76
2022/11/14 02:17:30;;;;;;;18.73;15.73;;;;;;;;;;1054797;28;20016;-76
2022/11/14 02:18:01;;;;;;;22.02;17.13;;;;;;;;;;1051342;28;20026;-77
2022/11/14 02:18:32;;;;;;;22.75;16.88;;;;;;;;;;1051726;28;20012;-77
2022/11/14 02:19:04;;;;;;;23.63;17.63;;;;;;;;;;1055493;28;20019;-76
2022/11/14 02:19:46;;;;;;;22.63;15.88;;;;;;;;;;1054120;28;20016;-76
2022/11/14 02:20:31;;;;;;;23.27;16.38;;;;;;;;;;1055636;28;20018;-76
2022/11/14 02:21:02;;;;;;;21.67;15.45;;;;;;;;;;1048591;28;20079;-76
2022/11/14 02:21:33;;;;;;;18.73;14.02;;;;;;;;;;1046748;28;20028;-76
2022/11/14 02:22:04;;;;;;;21.67;16.20;;;;;;;;;;1047205;28;20483;-77
2022/11/14 02:22:35;;;;;;;20.95;15.65;;;;;;;;;;1046679;28;20013;-77
2022/11/14 02:23:06;;;;;;;18.77;14.35;;;;;;;;;;1047334;28;20491;-78
2022/11/14 02:23:37;;;;;;;19.73;15.40;;;;;;;;;;1051285;28;20470;-77
2022/11/14 02:24:09;;;;;;;22.65;17.77;;;;;;;;;;1050957;28;20024;-77
2022/11/14 02:24:40;;;;;;;20.52;16.58;;;;;;;;;;1051167;28;20020;-77
2022/11/14 02:25:12;;;;;;;23.45;17.27;;;;;;;;;;1046895;28;20027;-77
2022/11/14 02:25:43;;;;;;;24.10;19.10;;;;;;;;;;1043438;28;20479;-77
2022/11/14 02:26:18;;;;;;;21.83;16.83;;;;;;;;;;1042730;28;20088;-77
2022/11/14 02:26:49;;;;;;;24.75;16.27;;;;;;;;;;1043764;28;20021;-77
2022/11/14 02:27:20;;;;;;;24.58;18.67;;;;;;;;;;1047901;28;20387;-76
2022/11/14 02:27:52;;;;;;;22.50;16.02;;;;;;;;;;1044650;28;20363;-78
2022/11/14 02:28:23;;;;;;;21.75;16.42;;;;;;;;;;1043239;28;20384;-78
2022/11/14 02:28:55;;;;;;;20.95;16.25;;;;;;;;;;1049316;28;20110;-78
2022/11/14 02:29:26;;;;;;;23.10;16.35;;;;;;;;;;1050538;28;20031;-77
2022/11/14 02:30:12;;;;;;;21.77;17.30;;;;;;;;;;1051234;28;20096;-77
2022/11/14 02:30:42;;;;;;;21.30;15.60;;;;;;;;;;1050517;28;20047;-77
2022/11/14 02:31:14;;;;;;;22.08;15.55;;;;;;;;;;1049070;28;20020;-76
2022/11/14 02:31:45;;;;;;;22.08;16.95;;;;;;;;;;1046875;28;20035;-77
2022/11/14 02:32:16;;;;;;;21.25;15.25;;;;;;;;;;1049400;28;20035;-78
2022/11/14 02:32:47;;;;;;;21.25;16.98;;;;;;;;;;1050808;28;20031;-77
2022/11/14 02:33:18;;;;;;;22.70;16.00;;;;;;;;;;1046748;28;20459;-78
2022/11/14 02:33:49;;;;;;;20.85;15.40;;;;;;;;;;1048824;28;20100;-78
2022/11/14 02:34:20;;;;;;;22.60;17.13;;;;;;;;;;1055001;28;20028;-78
2022/11/14 02:34:51;;;;;;;23.27;16.88;;;;;;;;;;1050461;28;20107;-78
2022/11/14 02:35:22;;;;;;;23.17;16.50;;;;;;;;;;1051165;28;20051;-77
2022/11/14 02:35:53;;;;;;;22.38;17.08;;;;;;;;;;1046791;28;20059;-78
2022/11/14 02:36:24;;;;;;;19.58;15.02;;;;;;;;;;1047045;28;20562;-78
2022/11/14 02:36:55;;;;;;;24.63;16.85;;;;;;;;;;1046622;28;20024;-78
2022/11/14 02:37:26;;;;;;;21.80;17.55;;;;;;;;;;1047307;28;20024;-77
2022/11/14 02:37:57;;;;;;;22.75;17.02;;;;;;;;;;1051107;28;20187;-76
2022/11/14 02:38:28;;;;;;;22.83;17.55;;;;;;;;;;1049630;28;20027;-77
2022/11/14 02:38:59;;;;;;;21.33;15.25;;;;;;;;;;1042874;28;20028;-77
2022/11/14 02:39:30;;;;;;;23.83;16.30;;;;;;;;;;1047041;28;20498;-77
2022/11/14 02:40:01;;;;;;;22.67;17.00;;;;;;;;;;1046810;28;20505;-78
2022/11/14 02:40:32;;;;;;;21.95;17.40;;;;;;;;;;1049932;28;20084;-76
2022/11/14 02:41:03;;;;;;;23.92;16.90;;;;;;;;;;1050844;28;20140;-76
2022/11/14 02:41:34;;;;;;;23.35;18.52;;;;;;;;;;1046958;28;20696;-77
2022/11/14 02:42:05;;;;;;;20.25;15.95;;;;;;;;;;1048961;28;20068;-78
2022/11/14 02:42:36;;;;;;;20.70;15.95;;;;;;;;;;1050988;28;20064;-78
2022/11/14 02:43:07;;;;;;;20.63;14.82;;;;;;;;;;1047266;28;20088;-78
2022/11/14 02:43:38;;;;;;;22.85;17.95;;;;;;;;;;1049202;28;20067;-78
2022/11/14 02:44:09;;;;;;;20.65;16.48;;;;;;;;;;1050668;28;20059;-78
2022/11/14 02:44:40;;;;;;;22.88;17.50;;;;;;;;;;1051184;28;20108;-78
2022/11/14 02:45:11;;;;;;;21.67;15.02;;;;;;;;;;1046566;28;20028;-78
2022/11/14 02:45:43;;;;;;;18.48;14.35;;;;;;;;;;1043712;28;20021;-78
2022/11/14 02:46:14;;;;;;;22.35;16.58;;;;;;;;;;1047430;28;20026;-77
2022/11/14 02:46:45;;;;;;;21.02;15.05;;;;;;;;;;1048288;28;20024;-77
2022/11/14 02:47:16;;;;;;;24.80;16.23;;;;;;;;;;1048638;28;20083;-77
2022/11/14 02:47:47;;;;;;;21.35;17.20;;;;;;;;;;1048042;28;20170;-76
2022/11/14 02:48:18;;;;;;;24.55;17.50;;;;;;;;;;1052720;28;20032;-77
2022/11/14 02:48:49;;;;;;;22.95;17.10;;;;;;;;;;1049473;28;20032;-79
2022/11/14 02:49:20;;;;;;;27.23;19.83;;;;;;;;;;1044652;28;20509;-78
2022/11/14 02:49:51;;;;;;;27.17;19.23;;;;;;;;;;1043805;28;20033;-77
2022/11/14 02:50:22;;;;;;;23.63;17.52;;;;;;;;;;1043779;28;20555;-77
2022/11/14 02:50:53;;;;;;;23.63;16.60;;;;;;;;;;1047971;28;20035;-78
2022/11/14 02:51:23;;;;;;;23.75;17.77;;;;;;;;;;1043592;28;20554;-77
2022/11/14 02:51:54;;;;;;;19.08;15.20;;;;;;;;;;1043232;28;20115;-78
2022/11/14 02:52:25;;;;;;;20.55;15.70;;;;;;;;;;1050121;28;20027;-77
2022/11/14 02:52:56;;;;;;;23.55;17.10;;;;;;;;;;1047740;28;20028;-78
2022/11/14 02:53:27;;;;;;;20.95;14.80;;;;;;;;;;1043938;28;20018;-78
2022/11/14 02:53:58;;;;;;;22.38;15.75;;;;;;;;;;1045562;28;20100;-77
2022/11/14 02:54:29;;;;;;;20.05;15.55;;;;;;;;;;1052305;28;20032;-77
2022/11/14 02:55:00;;;;;;;20.88;17.17;;;;;;;;;;1056038;28;20016;-77
2022/11/14 02:55:31;;;;;;;23.58;18.23;;;;;;;;;;1054326;28;20386;-78
2022/11/14 02:56:02;;;;;;;24.02;17.15;;;;;;;;;;1052521;28;20099;-78
2022/11/14 02:56:33;;;;;;;22.00;16.80;;;;;;;;;;1047488;28;20189;-77
2022/11/14 02:57:04;;;;;;;23.15;16.70;;;;;;;;;;1048106;28;20020;-77
2022/11/14 02:57:35;;;;;;;20.85;14.43;;;;;;;;;;1051769;28;20020;-77
2022/11/14 02:58:06;;;;;;;18.67;14.05;;;;;;;;;;1047943;28;20078;-76
2022/11/14 02:58:37;;;;;;;21.35;15.73;;;;;;;;;;1052106;28;20126;-76
2022/11/14 02:59:08;;;;;;;20.23;15.07;;;;;;;;;;1047421;28;20051;-77
2022/11/14 02:59:39;;;;;;;21.67;16.25;;;;;;;;;;1047470;28;20036;-77
2022/11/14 03:00:10;;;;;;;22.17;16.38;;;;;;;;;;1043774;28;20021;-76
2022/11/14 03:00:41;;;;;;;23.30;17.00;;;;;;;;;;1043558;28;20017;-77
2022/11/14 03:01:12;;;;;;;20.33;15.43;;;;;;;;;;1044151;28;20021;-78
2022/11/14 03:01:43;;;;;;;22.48;15.60;;;;;;;;;;1043823;28;20025;-78
2022/11/14 03:02:14;;;;;;;21.58;16.63;;;;;;;;;;1043562;28;20128;-78
2022/11/14 03:02:45;;;;;;;21.63;17.05;;;;;;;;;;1043662;28;20035;-76
2022/11/14 03:03:16;;;;;;;20.92;15.75;;;;;;;;;;1047925;28;20027;-77
2022/11/14 03:03:47;;;;;;;20.92;15.65;;;;;;;;;;1052251;28;20027;-77
2022/11/14 03:04:18;;;;;;;20.80;16.30;;;;;;;;;;1055969;28;20391;-78
2022/11/14 03:04:49;;;;;;;22.75;16.45;;;;;;;;;;1051724;28;20097;-78